createdAt,value
2022-10-28T00:01:17.413Z,101679.91
2022-10-28T00:03:58.547Z,101669.34
2022-10-28T00:06:35.447Z,101674.75
2022-10-28T00:09:05.740Z,101672.22
2022-10-28T00:11:35.849Z,101672.31
2022-10-28T00:14:06.094Z,101669.78
2022-10-28T00:16:37.087Z,101668.97
2022-10-28T00:19:08.319Z,101681.41
2022-10-28T00:21:38.282Z,101673.63
2022-10-28T00:24:08.175Z,101684.34
2022-10-28T00:26:39.304Z,101687.09
2022-10-28T00:29:16.792Z,101675.72
2022-10-28T00:31:45.591Z,101674.06
2022-10-28T00:34:17.819Z,101679.34
2022-10-28T00:36:46.938Z,101676.75
2022-10-28T00:39:18.482Z,101674.09
2022-10-28T00:41:52.251Z,101667.22
2022-10-28T00:44:58.993Z,101667.25
2022-10-28T00:47:37.418Z,101667.38
2022-10-28T00:50:25.884Z,101661.16
2022-10-28T00:53:06.256Z,101663.81
2022-10-28T00:55:36.431Z,101666.63
2022-10-28T00:58:07.476Z,101658.72
2022-10-28T01:00:34.893Z,101662.38
2022-10-28T01:03:02.555Z,101651.94
2022-10-28T01:05:34.696Z,101652.00
2022-10-28T01:08:05.066Z,101644.16
2022-10-28T01:10:50.553Z,101638.06
2022-10-28T01:13:50.245Z,101633.78
2022-10-28T01:16:29.640Z,101633.84
2022-10-28T01:19:52.592Z,101627.75
2022-10-28T01:22:36.357Z,101625.25
2022-10-28T01:25:12.460Z,101615.66
2022-10-28T01:28:20.312Z,101615.72
2022-10-28T01:31:14.442Z,101605.31
2022-10-28T01:34:31.412Z,101604.53
2022-10-28T01:37:12.596Z,101605.50
2022-10-28T01:40:00.643Z,101601.97
2022-10-28T01:43:04.504Z,101603.72
2022-10-28T01:45:45.503Z,101612.59
2022-10-28T01:48:22.086Z,101611.78
2022-10-28T01:51:14.688Z,101617.94
2022-10-28T01:53:46.436Z,101616.25
2022-10-28T01:56:21.769Z,101614.56
2022-10-28T01:58:52.297Z,101609.31
2022-10-28T02:01:20.914Z,101604.28
2022-10-28T02:03:48.924Z,101612.41
2022-10-28T02:06:22.476Z,101607.31
2022-10-28T02:09:09.964Z,101611.78
2022-10-28T02:12:06.432Z,101616.34
2022-10-28T02:15:06.013Z,101614.63
2022-10-28T02:18:10.520Z,101605.97
2022-10-28T02:21:10.605Z,101606.94
2022-10-28T02:23:47.437Z,101607.03
2022-10-28T02:26:38.942Z,101606.25
2022-10-28T02:29:17.336Z,101604.59
2022-10-28T02:31:57.576Z,101615.28
2022-10-28T02:34:33.122Z,101601.28
2022-10-28T02:37:10.978Z,101607.53
2022-10-28T02:39:48.171Z,101600.63
2022-10-28T02:42:25.323Z,101604.22
2022-10-28T02:45:09.587Z,101603.41
2022-10-28T02:47:44.943Z,101598.19
2022-10-28T02:50:19.434Z,101595.66
2022-10-28T02:52:54.881Z,101584.19
2022-10-28T02:55:30.117Z,101585.94
2022-10-28T02:57:58.199Z,101586.91
2022-10-28T03:00:25.628Z,101590.44
2022-10-28T03:02:53.035Z,101578.16
2022-10-28T03:05:20.745Z,101584.38
2022-10-28T03:07:48.100Z,101577.44
2022-10-28T03:10:15.471Z,101581.00
2022-10-28T03:12:42.861Z,101581.00
2022-10-28T03:15:10.910Z,101588.09
2022-10-28T03:17:38.243Z,101586.38
2022-10-28T03:20:06.376Z,101587.34
2022-10-28T03:22:33.711Z,101591.84
2022-10-28T03:25:01.042Z,101587.53
2022-10-28T03:27:28.456Z,101596.44
2022-10-28T03:29:55.802Z,101586.84
2022-10-28T03:34:50.535Z,101582.59
2022-10-28T03:37:17.880Z,101581.78
2022-10-28T03:39:45.224Z,101573.03
2022-10-28T03:42:12.565Z,101579.28
2022-10-28T03:44:39.897Z,101576.66
2022-10-28T03:47:07.439Z,101573.22
2022-10-28T03:49:37.746Z,101571.50
2022-10-28T03:52:05.301Z,101576.78
2022-10-28T03:54:32.651Z,101575.03
2022-10-28T03:57:00.079Z,101571.50
2022-10-28T03:59:27.432Z,101581.22
2022-10-28T04:01:54.883Z,101570.72
2022-10-28T04:04:24.217Z,101574.31
2022-10-28T04:06:53.407Z,101578.78
2022-10-28T04:09:20.767Z,101570.88
2022-10-28T04:11:49.325Z,101578.78
2022-10-28T04:14:16.819Z,101569.13
2022-10-28T04:16:44.166Z,101566.41
2022-10-28T04:19:11.512Z,101566.41
2022-10-28T04:21:38.995Z,101570.84
2022-10-28T04:24:06.433Z,101574.41
2022-10-28T04:26:33.776Z,101573.56
2022-10-28T04:29:01.150Z,101563.94
2022-10-28T04:31:28.484Z,101568.41
2022-10-28T04:33:55.875Z,101560.53
2022-10-28T04:36:23.225Z,101572.81
2022-10-28T04:38:51.907Z,101576.25
2022-10-28T04:41:19.277Z,101585.78
2022-10-28T04:43:46.637Z,101579.56
2022-10-28T04:46:13.982Z,101578.59
2022-10-28T04:48:41.398Z,101578.50
2022-10-28T04:51:08.819Z,101577.56
2022-10-28T04:53:36.157Z,101570.50
2022-10-28T04:56:03.673Z,101579.22
2022-10-28T04:58:31.206Z,101573.84
2022-10-28T05:00:58.590Z,101575.50
2022-10-28T05:03:26.017Z,101567.53
2022-10-28T05:05:53.415Z,101570.16
2022-10-28T05:08:20.757Z,101580.63
2022-10-28T05:10:50.961Z,101577.94
2022-10-28T05:13:19.371Z,101576.16
2022-10-28T05:15:50.661Z,101583.19
2022-10-28T05:18:18.573Z,101567.41
2022-10-28T05:20:45.968Z,101570.97
2022-10-28T05:23:13.313Z,101568.31
2022-10-28T05:25:42.564Z,101566.66
2022-10-28T05:28:09.950Z,101569.31
2022-10-28T05:30:37.902Z,101563.22
2022-10-28T05:33:05.553Z,101567.66
2022-10-28T05:35:32.988Z,101560.59
2022-10-28T05:38:00.423Z,101562.34
2022-10-28T05:40:27.828Z,101561.47
2022-10-28T05:42:55.397Z,101559.78
2022-10-28T05:45:22.984Z,101558.06
2022-10-28T05:47:50.363Z,101548.41
2022-10-28T05:50:20.533Z,101544.91
2022-10-28T05:52:54.064Z,101550.13
2022-10-28T05:55:24.826Z,101550.19
2022-10-28T05:57:53.051Z,101555.47
2022-10-28T06:00:24.523Z,101562.53
2022-10-28T06:02:52.152Z,101563.44
2022-10-28T06:05:20.352Z,101565.19
2022-10-28T06:07:47.766Z,101567.81
2022-10-28T06:10:15.210Z,101567.75
2022-10-28T06:12:41.074Z,101567.75
2022-10-28T06:15:08.892Z,101570.31
2022-10-28T06:17:36.305Z,101572.84
2022-10-28T06:20:04.995Z,101570.16
2022-10-28T06:22:32.480Z,101567.41
2022-10-28T06:24:59.921Z,101572.63
2022-10-28T06:27:27.272Z,101569.88
2022-10-28T06:29:54.661Z,101574.25
2022-10-28T06:32:22.042Z,101567.16
2022-10-28T06:34:49.797Z,101568.00
2022-10-28T06:37:17.864Z,101574.16
2022-10-28T06:39:49.691Z,101573.25
2022-10-28T06:42:17.664Z,101574.97
2022-10-28T06:44:45.061Z,101573.16
2022-10-28T06:47:14.018Z,101581.00
2022-10-28T06:49:41.377Z,101581.72
2022-10-28T06:52:08.755Z,101582.47
2022-10-28T06:54:36.118Z,101581.47
2022-10-28T06:57:03.659Z,101581.31
2022-10-28T06:59:31.070Z,101585.56
2022-10-28T07:01:58.502Z,101583.63
2022-10-28T07:04:25.998Z,101579.91
2022-10-28T07:06:58.069Z,101576.09
2022-10-28T07:09:25.524Z,101569.72
2022-10-28T07:11:55.119Z,101570.34
2022-10-28T07:14:23.104Z,101575.34
2022-10-28T07:16:50.483Z,101576.06
2022-10-28T07:19:21.690Z,101583.75
2022-10-28T07:21:49.935Z,101580.97
2022-10-28T07:24:17.395Z,101578.16
2022-10-28T07:26:47.036Z,101583.31
2022-10-28T07:29:14.519Z,101589.31
2022-10-28T07:31:42.007Z,101589.16
2022-10-28T07:34:09.556Z,101585.44
2022-10-28T07:36:37.123Z,101577.34
2022-10-28T07:39:04.956Z,101579.78
2022-10-28T07:41:32.317Z,101586.66
2022-10-28T07:43:59.793Z,101590.81
2022-10-28T07:46:27.256Z,101592.38
2022-10-28T07:48:54.660Z,101592.97
2022-10-28T07:51:22.046Z,101595.41
2022-10-28T07:53:49.399Z,101594.25
2022-10-28T07:56:16.898Z,101595.66
2022-10-28T07:58:45.322Z,101592.69
2022-10-28T08:01:16.746Z,101591.38
2022-10-28T08:03:44.781Z,101597.22
2022-10-28T08:06:19.147Z,101591.44
2022-10-28T08:08:52.629Z,101586.47
2022-10-28T08:11:24.887Z,101580.66
2022-10-28T08:13:53.280Z,101575.81
2022-10-28T08:16:20.735Z,101580.63
2022-10-28T08:18:48.471Z,101570.50
2022-10-28T08:21:16.124Z,101578.03
2022-10-28T08:23:46.725Z,101585.47
2022-10-28T08:26:16.566Z,101580.69
2022-10-28T08:28:44.007Z,101585.53
2022-10-28T08:31:12.488Z,101581.56
2022-10-28T08:33:46.305Z,101582.81
2022-10-28T08:36:16.694Z,101587.66
2022-10-28T08:38:46.552Z,101596.09
2022-10-28T08:41:29.911Z,101600.09
2022-10-28T08:44:33.609Z,101604.06
2022-10-28T08:47:09.735Z,101593.78
2022-10-28T08:49:43.486Z,101589.69
2022-10-28T08:52:56.400Z,101589.28
2022-10-28T08:56:07.654Z,101595.09
2022-10-28T08:58:39.276Z,101588.50
2022-10-28T09:01:16.933Z,101590.94
2022-10-28T09:03:50.826Z,101587.03
2022-10-28T09:06:18.217Z,101590.91
2022-10-28T09:08:49.994Z,101580.69
2022-10-28T09:11:38.718Z,101577.50
2022-10-28T09:14:37.707Z,101585.59
2022-10-28T09:17:16.245Z,101598.16
2022-10-28T09:20:14.513Z,101601.00
2022-10-28T09:22:59.501Z,101600.34
2022-10-28T09:25:57.263Z,101605.78
2022-10-28T09:28:39.330Z,101603.56
2022-10-28T09:31:32.376Z,101602.06
2022-10-28T09:34:17.632Z,101601.56
2022-10-28T09:36:58.731Z,101599.34
2022-10-28T09:39:43.728Z,101607.78
2022-10-28T09:42:19.243Z,101613.59
2022-10-28T09:45:06.248Z,101613.03
2022-10-28T09:47:53.955Z,101609.78
2022-10-28T09:50:29.434Z,101605.47
2022-10-28T09:53:21.134Z,101607.38
2022-10-28T09:55:50.809Z,101614.69
2022-10-28T09:58:19.193Z,101609.75
2022-10-28T10:00:46.612Z,101613.03
2022-10-28T10:03:17.176Z,101609.31
2022-10-28T10:05:52.732Z,101616.28
2022-10-28T10:08:22.643Z,101603.78
2022-10-28T10:10:57.521Z,101608.91
2022-10-28T10:13:35.437Z,101607.69
2022-10-28T10:16:18.368Z,101605.63
2022-10-28T10:18:53.518Z,101612.50
2022-10-28T10:21:54.347Z,101612.16
2022-10-28T10:24:32.447Z,101607.28
2022-10-28T10:27:14.237Z,101611.22
2022-10-28T10:29:48.586Z,101609.84
2022-10-28T10:32:23.055Z,101597.03
2022-10-28T10:35:36.822Z,101601.84
2022-10-28T10:38:07.756Z,101607.66
2022-10-28T10:40:48.966Z,101605.56
2022-10-28T10:43:17.394Z,101609.69
2022-10-28T10:46:06.189Z,101601.13
2022-10-28T10:48:37.736Z,101601.50
2022-10-28T10:51:27.234Z,101595.41
2022-10-28T10:54:01.814Z,101597.56
2022-10-28T10:56:33.838Z,101591.72
2022-10-28T10:59:12.177Z,101592.19
2022-10-28T11:01:40.663Z,101587.31
2022-10-28T11:04:16.985Z,101589.50
2022-10-28T11:06:50.977Z,101575.69
2022-10-28T11:09:39.535Z,101577.03
2022-10-28T11:12:31.988Z,101578.28
2022-10-28T11:15:04.250Z,101576.03
2022-10-28T11:17:34.659Z,101572.00
2022-10-28T11:20:31.055Z,101569.69
2022-10-28T11:23:24.484Z,101565.53
2022-10-28T11:25:58.977Z,101555.13
2022-10-28T11:29:07.460Z,101559.75
2022-10-28T11:32:54.612Z,101556.47
2022-10-28T11:35:56.022Z,101553.03
2022-10-28T11:38:47.867Z,101551.81
2022-10-28T11:41:37.627Z,101545.16
2022-10-28T11:44:27.358Z,101539.66
2022-10-28T11:47:41.799Z,101539.56
2022-10-28T11:50:42.135Z,101542.91
2022-10-28T11:53:21.509Z,101547.09
2022-10-28T11:56:10.546Z,101546.97
2022-10-28T11:59:02.774Z,101550.53
2022-10-28T12:02:15.117Z,101554.91
2022-10-28T12:05:15.677Z,101562.75
2022-10-28T12:07:54.067Z,101563.59
2022-10-28T12:11:01.943Z,101559.75
2022-10-28T12:13:49.613Z,101542.78
2022-10-28T12:16:29.566Z,101555.13
2022-10-28T12:19:11.383Z,101550.50
2022-10-28T12:21:45.944Z,101554.78
2022-10-28T12:24:20.131Z,101563.81
2022-10-28T12:26:57.185Z,101571.13
2022-10-28T12:29:40.643Z,101570.28
2022-10-28T12:32:20.465Z,101575.50
2022-10-28T12:34:59.039Z,101577.25
2022-10-28T12:38:13.727Z,101574.66
2022-10-28T12:40:58.079Z,101563.06
2022-10-28T12:43:44.009Z,101569.94
2022-10-28T12:46:28.826Z,101577.00
2022-10-28T12:49:07.307Z,101579.69
2022-10-28T12:51:40.704Z,101572.53
2022-10-28T12:54:27.615Z,101576.91
2022-10-28T12:57:13.802Z,101576.91
2022-10-28T12:59:53.695Z,101576.16
2022-10-28T13:02:31.347Z,101586.25
2022-10-28T13:04:58.937Z,101582.06
2022-10-28T13:08:00.161Z,101589.34
2022-10-28T13:10:51.661Z,101582.72
2022-10-28T13:13:38.023Z,101578.63
2022-10-28T13:16:57.043Z,101589.69
2022-10-28T13:20:01.308Z,101599.09
2022-10-28T13:23:03.722Z,101606.78
2022-10-28T13:25:43.148Z,101611.72
2022-10-28T13:28:17.720Z,101613.75
2022-10-28T13:30:58.970Z,101618.34
2022-10-28T13:33:30.345Z,101613.41
2022-10-28T13:36:15.085Z,101618.41
2022-10-28T13:38:48.942Z,101617.88
2022-10-28T13:41:41.012Z,101614.53
2022-10-28T13:44:10.748Z,101619.44
2022-10-28T13:46:56.954Z,101618.78
2022-10-28T13:49:26.543Z,101634.19
2022-10-28T13:52:07.633Z,101632.69
2022-10-28T13:54:43.928Z,101625.94
2022-10-28T13:57:35.388Z,101626.13
2022-10-28T14:03:02.655Z,101636.91
2022-10-28T14:05:36.215Z,101650.31
2022-10-28T14:08:08.020Z,101650.44
2022-10-28T14:10:40.353Z,101643.34
2022-10-28T14:13:21.207Z,101645.25
2022-10-28T14:16:11.732Z,101654.28
2022-10-28T14:18:56.885Z,101649.91
2022-10-28T14:21:24.730Z,101657.19
2022-10-28T14:24:09.096Z,101665.22
2022-10-28T14:27:07.990Z,101674.25
2022-10-28T14:29:59.482Z,101684.13
2022-10-28T14:33:19.087Z,101672.72
2022-10-28T14:35:50.365Z,101671.09
2022-10-28T14:38:35.399Z,101675.78
2022-10-28T14:41:46.786Z,101666.91
2022-10-28T14:44:52.551Z,101671.59
2022-10-28T14:47:40.150Z,101683.34
2022-10-28T14:50:42.193Z,101682.59
2022-10-28T14:53:24.056Z,101665.94
2022-10-28T14:56:03.392Z,101673.22
2022-10-28T14:58:43.277Z,101661.81
2022-10-28T15:01:16.415Z,101663.72
2022-10-28T15:03:54.652Z,101671.13
2022-10-28T15:06:39.246Z,101677.72
2022-10-28T15:09:31.741Z,101684.22
2022-10-28T15:12:08.758Z,101701.59
2022-10-28T15:14:50.662Z,101699.19
2022-10-28T15:17:28.120Z,101705.78
2022-10-28T15:20:00.682Z,101698.91
2022-10-28T15:22:33.045Z,101698.25
2022-10-28T15:25:10.526Z,101700.22
2022-10-28T15:27:41.371Z,101701.34
2022-10-28T15:30:25.191Z,101698.06
2022-10-28T15:32:54.649Z,101700.16
2022-10-28T15:35:38.121Z,101701.38
2022-10-28T15:38:31.988Z,101702.59
2022-10-28T15:40:59.539Z,101724.38
2022-10-28T15:43:30.542Z,101729.91
2022-10-28T15:46:15.288Z,101726.63
2022-10-28T15:48:42.722Z,101737.69
2022-10-28T15:51:19.454Z,101735.28
2022-10-28T15:53:53.992Z,101737.25
2022-10-28T15:56:25.029Z,101725.97
2022-10-28T15:59:23.409Z,101736.94
2022-10-28T16:01:51.525Z,101739.06
2022-10-28T16:04:19.015Z,101747.38
2022-10-28T16:06:46.571Z,101752.19
2022-10-28T16:09:25.949Z,101745.41
2022-10-28T16:12:01.591Z,101753.00
2022-10-28T16:14:58.911Z,101744.41
2022-10-28T16:17:33.144Z,101743.00
2022-10-28T16:20:04.327Z,101746.00
2022-10-28T16:22:36.272Z,101745.41
2022-10-28T16:25:36.892Z,101749.34
2022-10-28T16:28:09.655Z,101750.69
2022-10-28T16:30:37.089Z,101754.56
2022-10-28T16:33:05.826Z,101769.97
2022-10-28T16:35:33.185Z,101764.94
2022-10-28T16:38:00.529Z,101779.47
2022-10-28T16:40:50.546Z,101786.09
2022-10-28T16:43:26.756Z,101784.75
2022-10-28T16:45:57.140Z,101782.53
2022-10-28T16:48:28.770Z,101787.31
2022-10-28T16:51:04.847Z,101798.38
2022-10-28T16:53:35.264Z,101788.94
2022-10-28T16:56:02.692Z,101788.31
2022-10-28T16:58:30.435Z,101793.00
2022-10-28T17:01:00.236Z,101795.03
2022-10-28T17:03:27.593Z,101797.00
2022-10-28T17:05:54.928Z,101787.41
2022-10-28T17:08:36.461Z,101782.25
2022-10-28T17:11:18.023Z,101785.91
2022-10-28T17:13:45.486Z,101786.13
2022-10-28T17:16:15.154Z,101796.06
2022-10-28T17:18:44.159Z,101793.56
2022-10-28T17:21:11.599Z,101799.13
2022-10-28T17:23:40.079Z,101809.06
2022-10-28T17:26:07.422Z,101811.06
2022-10-28T17:28:34.864Z,101817.56
2022-10-28T17:31:08.204Z,101809.75
2022-10-28T17:33:45.101Z,101815.34
2022-10-28T17:36:13.657Z,101822.72
2022-10-28T17:38:41.039Z,101831.00
2022-10-28T17:41:08.464Z,101837.47
2022-10-28T17:43:35.835Z,101828.88
2022-10-28T17:46:05.780Z,101831.03
2022-10-28T17:48:34.392Z,101827.00
2022-10-28T17:51:04.771Z,101828.13
2022-10-28T17:53:32.308Z,101837.25
2022-10-28T17:56:03.073Z,101841.91
2022-10-28T17:58:31.227Z,101844.06
2022-10-28T18:01:01.492Z,101849.63
2022-10-28T18:03:38.266Z,101856.94
2022-10-28T18:06:13.154Z,101862.47
2022-10-28T18:08:43.307Z,101872.41
2022-10-28T18:11:16.541Z,101865.47
2022-10-28T18:13:47.539Z,101867.47
2022-10-28T18:16:20.029Z,101858.78
2022-10-28T18:18:47.928Z,101863.47
2022-10-28T18:21:15.310Z,101870.75
2022-10-28T18:23:59.086Z,101871.81
2022-10-28T18:26:26.453Z,101877.38
2022-10-28T18:28:56.577Z,101880.16
2022-10-28T18:31:24.028Z,101870.53
2022-10-28T18:33:51.840Z,101874.09
2022-10-28T18:36:29.463Z,101881.22
2022-10-28T18:38:57.697Z,101876.00
2022-10-28T18:41:29.113Z,101881.41
2022-10-28T18:44:00.561Z,101895.75
2022-10-28T18:46:31.754Z,101888.75
2022-10-28T18:51:33.344Z,101908.53
2022-10-28T18:54:00.721Z,101907.72
2022-10-28T18:56:29.637Z,101911.38
2022-10-28T18:58:58.771Z,101907.91
2022-10-28T19:01:28.683Z,101908.88
2022-10-28T19:03:59.543Z,101910.72
2022-10-28T19:06:32.483Z,101910.00
2022-10-28T19:09:04.038Z,101913.56
2022-10-28T19:11:33.629Z,101909.25
2022-10-28T19:14:04.510Z,101900.41
2022-10-28T19:16:34.066Z,101902.19
2022-10-28T19:19:04.561Z,101895.16
2022-10-28T19:21:33.051Z,101902.31
2022-10-28T19:24:00.613Z,101915.78
2022-10-28T19:26:28.380Z,101920.34
2022-10-28T19:28:55.788Z,101921.31
2022-10-28T19:31:27.224Z,101931.06
2022-10-28T19:33:55.165Z,101920.53
2022-10-28T19:36:29.020Z,101909.94
2022-10-28T19:38:57.906Z,101913.59
2022-10-28T19:41:30.209Z,101916.28
2022-10-28T19:44:00.521Z,101916.34
2022-10-28T19:46:31.984Z,101916.44
2022-10-28T19:49:01.176Z,101929.06
2022-10-28T19:51:34.075Z,101929.22
2022-10-28T19:54:05.004Z,101937.25
2022-10-28T19:56:35.020Z,101942.69
2022-10-28T19:59:04.434Z,101938.41
2022-10-28T20:01:38.165Z,101919.84
2022-10-28T20:04:06.417Z,101930.53
2022-10-28T20:06:38.004Z,101936.78
2022-10-28T20:09:06.061Z,101943.13
2022-10-28T20:11:37.691Z,101949.41
2022-10-28T20:14:11.532Z,101959.13
2022-10-28T20:16:42.640Z,101958.28
2022-10-28T20:19:11.123Z,101964.56
2022-10-28T20:21:39.127Z,101969.13
2022-10-28T20:24:08.114Z,101977.28
2022-10-28T20:26:38.440Z,101975.69
2022-10-28T20:29:09.930Z,101974.16
2022-10-28T20:31:38.997Z,101972.44
2022-10-28T20:34:08.087Z,101971.69
2022-10-28T20:36:44.506Z,101982.41
2022-10-28T20:39:18.288Z,101985.22
2022-10-28T20:41:51.261Z,101989.75
2022-10-28T20:44:18.722Z,101994.28
2022-10-28T20:46:47.978Z,101992.59
2022-10-28T20:49:15.611Z,102001.50
2022-10-28T20:51:43.082Z,102003.31
2022-10-28T20:54:10.575Z,102002.50
2022-10-28T20:56:40.364Z,102014.94
2022-10-28T20:59:11.317Z,102022.94
2022-10-28T21:01:40.778Z,102025.63
2022-10-28T21:04:11.206Z,102026.50
2022-10-28T21:06:39.481Z,102029.22
2022-10-28T21:09:07.802Z,102030.09
2022-10-28T21:11:35.228Z,102034.56
2022-10-28T21:14:05.966Z,102027.59
2022-10-28T21:16:33.390Z,102024.13
2022-10-28T21:19:03.700Z,102028.59
2022-10-28T21:21:32.101Z,102025.13
2022-10-28T21:23:59.788Z,102025.16
2022-10-28T21:26:27.399Z,102017.28
2022-10-28T21:28:56.327Z,102028.78
2022-10-28T21:31:24.568Z,102028.94
2022-10-28T21:33:52.928Z,102023.75
2022-10-28T21:36:22.077Z,102020.28
2022-10-28T21:38:54.492Z,102016.91
2022-10-28T21:41:24.079Z,102021.47
2022-10-28T21:43:53.971Z,102034.81
2022-10-28T21:46:23.438Z,102034.03
2022-10-28T21:48:50.819Z,102037.66
2022-10-28T21:51:18.306Z,102035.91
2022-10-28T21:53:45.885Z,102035.97
2022-10-28T21:56:19.933Z,102036.91
2022-10-28T21:58:51.145Z,102034.41
2022-10-28T22:01:22.657Z,102022.19
2022-10-28T22:03:51.581Z,102026.91
2022-10-28T22:06:18.907Z,102016.41
2022-10-28T22:08:46.884Z,102024.47
2022-10-28T22:11:18.184Z,102020.16
2022-10-28T22:13:46.132Z,102023.84
2022-10-28T22:16:17.960Z,102023.97
2022-10-28T22:18:45.894Z,102028.56
2022-10-28T22:21:19.084Z,102027.78
2022-10-28T22:23:47.660Z,102033.13
2022-10-28T22:26:29.496Z,102028.81
2022-10-28T22:28:57.482Z,102030.78
2022-10-28T22:31:29.153Z,102044.22
2022-10-28T22:33:57.584Z,102048.88
2022-10-28T22:36:28.308Z,102045.47
2022-10-28T22:38:55.687Z,102044.75
2022-10-28T22:41:29.612Z,102033.31
2022-10-28T22:44:00.529Z,102039.59
2022-10-28T22:46:33.370Z,102044.94
2022-10-28T22:49:00.764Z,102035.31
2022-10-28T22:51:28.147Z,102041.56
2022-10-28T22:53:55.648Z,102050.38
2022-10-28T22:56:25.964Z,102059.16
2022-10-28T22:58:58.203Z,102052.13
2022-10-28T23:01:28.521Z,102059.16
2022-10-28T23:03:56.360Z,102059.16
2022-10-28T23:06:27.199Z,102063.56
2022-10-28T23:08:54.867Z,102064.44
2022-10-28T23:11:23.353Z,102061.78
2022-10-28T23:13:53.386Z,102053.81
2022-10-28T23:16:22.878Z,102050.25
2022-10-28T23:18:52.747Z,102050.19
2022-10-28T23:21:25.949Z,102052.81
2022-10-28T23:23:59.965Z,102049.19
2022-10-28T23:26:29.543Z,102048.28
2022-10-28T23:28:59.494Z,102043.81
2022-10-28T23:31:27.966Z,102041.28
2022-10-28T23:33:55.417Z,102039.75
2022-10-28T23:36:23.157Z,102050.47
2022-10-28T23:38:50.587Z,102050.53
2022-10-28T23:41:18.851Z,102052.28
2022-10-28T23:43:48.607Z,102057.59
2022-10-28T23:46:17.171Z,102053.16
2022-10-28T23:48:44.501Z,102051.44
2022-10-28T23:51:11.886Z,102050.53
2022-10-28T23:53:39.281Z,102048.81
2022-10-28T23:56:07.250Z,102051.50
2022-10-28T23:58:34.608Z,102052.41
